Larkfield, California
Current Conditions -  °F | °C
As of 1:02 AM on Sunday 21 Dec 2014 (Local Time) from KSTS Reporting Station
Haze Haze  
Wind Chill: 55°   Ceiling: 300
Heat Index: 55°   Visibility: 1.7mi
Dew Point: 55°   Wind: 0mph
Humidity: 100%   Direction: NA
Pressure: 30.23"   Gusts: NA
Location:  38.4891°N, 122.745°W
Report Text: KSTS 210902Z AUTO 00000KT 1 3/4SM BR OVC003 13/13 A3023 RMK AO2
Loading
Personal Weather Stations






























Interactive Weather Map New forecast layout! Learn more

10-Day Weather Forecast

Advertisements
Track Severe Weather on mobile